sensor_id;sensor_type;location;lat;lon;timestamp;P1;durP1;ratioP1;P2;durP2;ratioP2
58242;SDS011;50118;53.232;8.252;2024-01-30T00:01:33;24.83;;;15.93;;
58242;SDS011;50118;53.232;8.252;2024-01-30T00:03:59;22.88;;;15.63;;
58242;SDS011;50118;53.232;8.252;2024-01-30T00:06:24;26.15;;;16.02;;
58242;SDS011;50118;53.232;8.252;2024-01-30T00:08:50;25.90;;;17.10;;
58242;SDS011;50118;53.232;8.252;2024-01-30T00:11:15;22.05;;;15.18;;
58242;SDS011;50118;53.232;8.252;2024-01-30T00:13:41;26.90;;;17.05;;
58242;SDS011;50118;53.232;8.252;2024-01-30T00:16:07;25.80;;;16.77;;
58242;SDS011;50118;53.232;8.252;2024-01-30T00:18:33;25.40;;;16.70;;
58242;SDS011;50118;53.232;8.252;2024-01-30T00:20:59;24.10;;;16.40;;
58242;SDS011;50118;53.232;8.252;2024-01-30T00:23:24;27.27;;;18.48;;
58242;SDS011;50118;53.232;8.252;2024-01-30T00:25:50;27.48;;;17.00;;
58242;SDS011;50118;53.232;8.252;2024-01-30T00:28:15;24.88;;;16.42;;
58242;SDS011;50118;53.232;8.252;2024-01-30T00:30:41;27.95;;;17.77;;
58242;SDS011;50118;53.232;8.252;2024-01-30T00:33:06;28.35;;;17.73;;
58242;SDS011;50118;53.232;8.252;2024-01-30T00:35:33;25.20;;;17.98;;
58242;SDS011;50118;53.232;8.252;2024-01-30T00:37:58;27.98;;;17.25;;
58242;SDS011;50118;53.232;8.252;2024-01-30T00:40:24;28.08;;;17.48;;
58242;SDS011;50118;53.232;8.252;2024-01-30T00:42:49;24.55;;;16.80;;
58242;SDS011;50118;53.232;8.252;2024-01-30T00:45:15;25.73;;;17.77;;
58242;SDS011;50118;53.232;8.252;2024-01-30T00:47:41;30.35;;;18.30;;
58242;SDS011;50118;53.232;8.252;2024-01-30T00:50:07;27.92;;;18.70;;
58242;SDS011;50118;53.232;8.252;2024-01-30T00:52:33;28.00;;;18.90;;
58242;SDS011;50118;53.232;8.252;2024-01-30T00:55:01;30.63;;;19.38;;
58242;SDS011;50118;53.232;8.252;2024-01-30T00:57:27;27.60;;;18.92;;
58242;SDS011;50118;53.232;8.252;2024-01-30T00:59:53;28.63;;;18.20;;
58242;SDS011;50118;53.232;8.252;2024-01-30T01:02:18;28.17;;;18.23;;
58242;SDS011;50118;53.232;8.252;2024-01-30T01:04:44;27.05;;;18.23;;
58242;SDS011;50118;53.232;8.252;2024-01-30T01:07:10;28.35;;;19.00;;
58242;SDS011;50118;53.232;8.252;2024-01-30T01:09:36;26.55;;;18.90;;
58242;SDS011;50118;53.232;8.252;2024-01-30T01:12:02;26.85;;;17.98;;
58242;SDS011;50118;53.232;8.252;2024-01-30T01:14:28;26.33;;;17.50;;
58242;SDS011;50118;53.232;8.252;2024-01-30T01:16:53;25.42;;;17.58;;
58242;SDS011;50118;53.232;8.252;2024-01-30T01:19:18;26.70;;;18.05;;
58242;SDS011;50118;53.232;8.252;2024-01-30T01:21:44;26.20;;;17.85;;
58242;SDS011;50118;53.232;8.252;2024-01-30T01:24:09;27.45;;;17.50;;
58242;SDS011;50118;53.232;8.252;2024-01-30T01:26:35;27.80;;;17.88;;
58242;SDS011;50118;53.232;8.252;2024-01-30T01:29:00;25.95;;;17.63;;
58242;SDS011;50118;53.232;8.252;2024-01-30T01:31:26;23.73;;;16.70;;
58242;SDS011;50118;53.232;8.252;2024-01-30T01:33:54;24.98;;;17.83;;
58242;SDS011;50118;53.232;8.252;2024-01-30T01:36:20;28.50;;;18.65;;
58242;SDS011;50118;53.232;8.252;2024-01-30T01:38:45;24.85;;;17.52;;
58242;SDS011;50118;53.232;8.252;2024-01-30T01:41:11;28.63;;;17.77;;
58242;SDS011;50118;53.232;8.252;2024-01-30T01:43:36;25.48;;;17.45;;
58242;SDS011;50118;53.232;8.252;2024-01-30T01:46:04;26.92;;;17.55;;
58242;SDS011;50118;53.232;8.252;2024-01-30T01:48:30;26.98;;;17.30;;
58242;SDS011;50118;53.232;8.252;2024-01-30T01:50:55;29.75;;;19.27;;
58242;SDS011;50118;53.232;8.252;2024-01-30T01:53:21;26.75;;;18.30;;
58242;SDS011;50118;53.232;8.252;2024-01-30T01:55:47;25.75;;;18.02;;
58242;SDS011;50118;53.232;8.252;2024-01-30T01:58:13;24.17;;;17.95;;
58242;SDS011;50118;53.232;8.252;2024-01-30T02:00:39;30.27;;;18.67;;
58242;SDS011;50118;53.232;8.252;2024-01-30T02:03:06;27.48;;;18.42;;
58242;SDS011;50118;53.232;8.252;2024-01-30T02:05:35;28.65;;;18.65;;
58242;SDS011;50118;53.232;8.252;2024-01-30T02:08:01;27.50;;;18.40;;
58242;SDS011;50118;53.232;8.252;2024-01-30T02:10:26;27.52;;;19.20;;
58242;SDS011;50118;53.232;8.252;2024-01-30T02:12:52;30.05;;;19.85;;
58242;SDS011;50118;53.232;8.252;2024-01-30T02:15:18;29.52;;;20.77;;
58242;SDS011;50118;53.232;8.252;2024-01-30T02:17:43;34.58;;;21.17;;
58242;SDS011;50118;53.232;8.252;2024-01-30T02:20:09;30.42;;;19.38;;
58242;SDS011;50118;53.232;8.252;2024-01-30T02:22:35;28.50;;;19.30;;
58242;SDS011;50118;53.232;8.252;2024-01-30T02:25:02;27.63;;;19.25;;
58242;SDS011;50118;53.232;8.252;2024-01-30T02:27:28;27.45;;;19.40;;
58242;SDS011;50118;53.232;8.252;2024-01-30T02:29:53;28.20;;;19.65;;
58242;SDS011;50118;53.232;8.252;2024-01-30T02:32:19;30.70;;;19.33;;
58242;SDS011;50118;53.232;8.252;2024-01-30T02:34:44;27.42;;;19.52;;
58242;SDS011;50118;53.232;8.252;2024-01-30T02:37:09;30.42;;;19.38;;
58242;SDS011;50118;53.232;8.252;2024-01-30T02:39:35;29.00;;;18.85;;
58242;SDS011;50118;53.232;8.252;2024-01-30T02:42:00;27.98;;;19.27;;
58242;SDS011;50118;53.232;8.252;2024-01-30T02:44:26;29.13;;;19.83;;
58242;SDS011;50118;53.232;8.252;2024-01-30T02:46:51;27.38;;;18.52;;
58242;SDS011;50118;53.232;8.252;2024-01-30T02:49:19;30.33;;;19.90;;
58242;SDS011;50118;53.232;8.252;2024-01-30T02:51:44;29.45;;;19.70;;
58242;SDS011;50118;53.232;8.252;2024-01-30T02:54:10;28.77;;;18.95;;
58242;SDS011;50118;53.232;8.252;2024-01-30T02:56:35;27.88;;;19.48;;
58242;SDS011;50118;53.232;8.252;2024-01-30T02:59:00;28.08;;;19.25;;
58242;SDS011;50118;53.232;8.252;2024-01-30T03:01:26;26.50;;;20.30;;
58242;SDS011;50118;53.232;8.252;2024-01-30T03:03:51;29.98;;;20.92;;
58242;SDS011;50118;53.232;8.252;2024-01-30T03:06:17;28.00;;;19.35;;
58242;SDS011;50118;53.232;8.252;2024-01-30T03:08:42;28.38;;;19.52;;
58242;SDS011;50118;53.232;8.252;2024-01-30T03:11:08;27.63;;;18.50;;
58242;SDS011;50118;53.232;8.252;2024-01-30T03:13:33;31.02;;;19.60;;
58242;SDS011;50118;53.232;8.252;2024-01-30T03:15:59;29.23;;;18.98;;
58242;SDS011;50118;53.232;8.252;2024-01-30T03:18:24;29.63;;;20.30;;
58242;SDS011;50118;53.232;8.252;2024-01-30T03:20:50;30.30;;;19.67;;
58242;SDS011;50118;53.232;8.252;2024-01-30T03:23:15;28.02;;;18.60;;
58242;SDS011;50118;53.232;8.252;2024-01-30T03:25:40;27.35;;;19.35;;
58242;SDS011;50118;53.232;8.252;2024-01-30T03:28:06;27.25;;;18.42;;
58242;SDS011;50118;53.232;8.252;2024-01-30T03:30:31;26.40;;;18.17;;
58242;SDS011;50118;53.232;8.252;2024-01-30T03:32:57;28.45;;;19.58;;
58242;SDS011;50118;53.232;8.252;2024-01-30T03:35:22;29.55;;;19.45;;
58242;SDS011;50118;53.232;8.252;2024-01-30T03:37:48;33.45;;;21.70;;
58242;SDS011;50118;53.232;8.252;2024-01-30T03:40:13;33.40;;;21.55;;
58242;SDS011;50118;53.232;8.252;2024-01-30T03:42:39;32.65;;;21.58;;
58242;SDS011;50118;53.232;8.252;2024-01-30T03:45:04;29.85;;;19.65;;
58242;SDS011;50118;53.232;8.252;2024-01-30T03:47:30;29.08;;;20.67;;
58242;SDS011;50118;53.232;8.252;2024-01-30T03:49:55;31.85;;;21.05;;
58242;SDS011;50118;53.232;8.252;2024-01-30T03:52:21;33.60;;;21.80;;
58242;SDS011;50118;53.232;8.252;2024-01-30T03:54:46;32.05;;;20.25;;
58242;SDS011;50118;53.232;8.252;2024-01-30T03:57:12;31.05;;;20.20;;
58242;SDS011;50118;53.232;8.252;2024-01-30T03:59:37;29.73;;;21.02;;
58242;SDS011;50118;53.232;8.252;2024-01-30T04:02:03;32.83;;;21.40;;
58242;SDS011;50118;53.232;8.252;2024-01-30T04:04:29;29.08;;;19.85;;
58242;SDS011;50118;53.232;8.252;2024-01-30T04:06:54;28.85;;;20.40;;
58242;SDS011;50118;53.232;8.252;2024-01-30T04:09:20;32.90;;;21.95;;
58242;SDS011;50118;53.232;8.252;2024-01-30T04:11:45;29.70;;;20.92;;
58242;SDS011;50118;53.232;8.252;2024-01-30T04:14:11;29.65;;;20.30;;
58242;SDS011;50118;53.232;8.252;2024-01-30T04:16:36;28.40;;;19.65;;
58242;SDS011;50118;53.232;8.252;2024-01-30T04:19:01;31.40;;;19.40;;
58242;SDS011;50118;53.232;8.252;2024-01-30T04:21:27;27.80;;;18.88;;
58242;SDS011;50118;53.232;8.252;2024-01-30T04:23:52;31.08;;;20.08;;
58242;SDS011;50118;53.232;8.252;2024-01-30T04:26:18;29.23;;;19.33;;
58242;SDS011;50118;53.232;8.252;2024-01-30T04:28:46;30.67;;;20.70;;
58242;SDS011;50118;53.232;8.252;2024-01-30T04:31:12;28.95;;;19.15;;
58242;SDS011;50118;53.232;8.252;2024-01-30T04:33:37;30.55;;;20.85;;
58242;SDS011;50118;53.232;8.252;2024-01-30T04:36:03;32.38;;;21.95;;
58242;SDS011;50118;53.232;8.252;2024-01-30T04:38:34;31.63;;;21.80;;
58242;SDS011;50118;53.232;8.252;2024-01-30T04:40:59;31.95;;;21.63;;
58242;SDS011;50118;53.232;8.252;2024-01-30T04:43:24;32.80;;;20.90;;
58242;SDS011;50118;53.232;8.252;2024-01-30T04:45:51;31.20;;;21.80;;
58242;SDS011;50118;53.232;8.252;2024-01-30T04:48:16;30.33;;;20.73;;
58242;SDS011;50118;53.232;8.252;2024-01-30T04:50:42;32.33;;;21.05;;
58242;SDS011;50118;53.232;8.252;2024-01-30T04:53:07;31.08;;;20.38;;
58242;SDS011;50118;53.232;8.252;2024-01-30T04:55:33;36.15;;;22.40;;
58242;SDS011;50118;53.232;8.252;2024-01-30T04:57:58;35.92;;;22.42;;
58242;SDS011;50118;53.232;8.252;2024-01-30T05:00:23;35.70;;;22.48;;
58242;SDS011;50118;53.232;8.252;2024-01-30T05:02:49;33.80;;;21.20;;
58242;SDS011;50118;53.232;8.252;2024-01-30T05:05:14;36.92;;;22.92;;
58242;SDS011;50118;53.232;8.252;2024-01-30T05:07:41;32.22;;;21.73;;
58242;SDS011;50118;53.232;8.252;2024-01-30T05:10:06;34.35;;;21.95;;
58242;SDS011;50118;53.232;8.252;2024-01-30T05:12:33;29.55;;;20.83;;
58242;SDS011;50118;53.232;8.252;2024-01-30T05:14:59;32.40;;;20.80;;
58242;SDS011;50118;53.232;8.252;2024-01-30T05:17:24;34.00;;;21.70;;
58242;SDS011;50118;53.232;8.252;2024-01-30T05:19:49;35.75;;;21.65;;
58242;SDS011;50118;53.232;8.252;2024-01-30T05:22:15;31.60;;;20.35;;
58242;SDS011;50118;53.232;8.252;2024-01-30T05:24:42;32.20;;;20.95;;
58242;SDS011;50118;53.232;8.252;2024-01-30T05:27:08;31.25;;;20.92;;
58242;SDS011;50118;53.232;8.252;2024-01-30T05:29:33;30.15;;;19.95;;
58242;SDS011;50118;53.232;8.252;2024-01-30T05:31:59;29.65;;;19.98;;
58242;SDS011;50118;53.232;8.252;2024-01-30T05:34:24;30.02;;;21.08;;
58242;SDS011;50118;53.232;8.252;2024-01-30T05:36:50;29.45;;;19.83;;
58242;SDS011;50118;53.232;8.252;2024-01-30T05:39:15;30.58;;;21.42;;
58242;SDS011;50118;53.232;8.252;2024-01-30T05:41:40;34.17;;;21.20;;
58242;SDS011;50118;53.232;8.252;2024-01-30T05:44:06;32.13;;;20.88;;
58242;SDS011;50118;53.232;8.252;2024-01-30T05:46:31;34.00;;;23.17;;
58242;SDS011;50118;53.232;8.252;2024-01-30T05:48:58;32.70;;;21.38;;
58242;SDS011;50118;53.232;8.252;2024-01-30T05:51:23;32.50;;;22.23;;
58242;SDS011;50118;53.232;8.252;2024-01-30T05:53:49;32.20;;;22.00;;
58242;SDS011;50118;53.232;8.252;2024-01-30T05:56:14;33.60;;;23.10;;
58242;SDS011;50118;53.232;8.252;2024-01-30T05:58:40;34.15;;;21.77;;
58242;SDS011;50118;53.232;8.252;2024-01-30T06:01:08;34.03;;;22.13;;
58242;SDS011;50118;53.232;8.252;2024-01-30T06:03:34;34.97;;;22.30;;
58242;SDS011;50118;53.232;8.252;2024-01-30T06:06:00;31.65;;;22.38;;
58242;SDS011;50118;53.232;8.252;2024-01-30T06:08:26;31.30;;;22.63;;
58242;SDS011;50118;53.232;8.252;2024-01-30T06:10:51;30.80;;;20.95;;
58242;SDS011;50118;53.232;8.252;2024-01-30T06:13:17;31.27;;;22.20;;
58242;SDS011;50118;53.232;8.252;2024-01-30T06:15:42;30.15;;;19.98;;
58242;SDS011;50118;53.232;8.252;2024-01-30T06:18:08;30.17;;;21.10;;
58242;SDS011;50118;53.232;8.252;2024-01-30T06:20:33;29.73;;;19.77;;
58242;SDS011;50118;53.232;8.252;2024-01-30T06:22:59;31.42;;;21.05;;
58242;SDS011;50118;53.232;8.252;2024-01-30T06:25:24;30.35;;;20.60;;
58242;SDS011;50118;53.232;8.252;2024-01-30T06:27:50;30.98;;;19.88;;
58242;SDS011;50118;53.232;8.252;2024-01-30T06:30:15;30.92;;;22.38;;
58242;SDS011;50118;53.232;8.252;2024-01-30T06:32:41;32.28;;;21.27;;
58242;SDS011;50118;53.232;8.252;2024-01-30T06:35:06;34.63;;;21.08;;
58242;SDS011;50118;53.232;8.252;2024-01-30T06:37:33;33.85;;;21.55;;
58242;SDS011;50118;53.232;8.252;2024-01-30T06:39:58;32.58;;;21.15;;
58242;SDS011;50118;53.232;8.252;2024-01-30T06:42:23;32.28;;;21.67;;
58242;SDS011;50118;53.232;8.252;2024-01-30T06:44:49;33.67;;;22.10;;
58242;SDS011;50118;53.232;8.252;2024-01-30T06:47:14;32.45;;;21.35;;
58242;SDS011;50118;53.232;8.252;2024-01-30T06:49:40;32.97;;;21.30;;
58242;SDS011;50118;53.232;8.252;2024-01-30T06:52:07;32.13;;;21.20;;
58242;SDS011;50118;53.232;8.252;2024-01-30T06:54:33;31.83;;;20.75;;
58242;SDS011;50118;53.232;8.252;2024-01-30T06:56:59;29.92;;;20.25;;
58242;SDS011;50118;53.232;8.252;2024-01-30T06:59:24;31.55;;;20.80;;
58242;SDS011;50118;53.232;8.252;2024-01-30T07:01:50;35.42;;;23.48;;
58242;SDS011;50118;53.232;8.252;2024-01-30T07:04:15;30.83;;;22.23;;
58242;SDS011;50118;53.232;8.252;2024-01-30T07:06:41;33.17;;;21.17;;
58242;SDS011;50118;53.232;8.252;2024-01-30T07:09:06;30.92;;;21.08;;
58242;SDS011;50118;53.232;8.252;2024-01-30T07:11:32;29.25;;;20.55;;
58242;SDS011;50118;53.232;8.252;2024-01-30T07:13:57;29.15;;;19.58;;
58242;SDS011;50118;53.232;8.252;2024-01-30T07:16:23;30.20;;;19.77;;
58242;SDS011;50118;53.232;8.252;2024-01-30T07:18:49;29.27;;;19.55;;
58242;SDS011;50118;53.232;8.252;2024-01-30T07:21:15;28.13;;;18.80;;
58242;SDS011;50118;53.232;8.252;2024-01-30T07:23:40;27.80;;;18.73;;
58242;SDS011;50118;53.232;8.252;2024-01-30T07:26:07;27.27;;;18.52;;
58242;SDS011;50118;53.232;8.252;2024-01-30T07:28:33;25.02;;;18.63;;
58242;SDS011;50118;53.232;8.252;2024-01-30T07:31:00;25.67;;;17.88;;
58242;SDS011;50118;53.232;8.252;2024-01-30T07:33:26;25.50;;;18.38;;
58242;SDS011;50118;53.232;8.252;2024-01-30T07:35:52;26.92;;;17.85;;
58242;SDS011;50118;53.232;8.252;2024-01-30T07:38:18;24.95;;;17.67;;
58242;SDS011;50118;53.232;8.252;2024-01-30T07:40:43;27.13;;;18.27;;
58242;SDS011;50118;53.232;8.252;2024-01-30T07:43:09;24.60;;;18.33;;
58242;SDS011;50118;53.232;8.252;2024-01-30T07:45:34;22.75;;;16.88;;
58242;SDS011;50118;53.232;8.252;2024-01-30T07:47:59;23.60;;;16.73;;
58242;SDS011;50118;53.232;8.252;2024-01-30T07:50:25;24.52;;;17.02;;
58242;SDS011;50118;53.232;8.252;2024-01-30T07:52:51;25.67;;;17.50;;
58242;SDS011;50118;53.232;8.252;2024-01-30T07:55:20;24.67;;;16.58;;
58242;SDS011;50118;53.232;8.252;2024-01-30T07:57:49;23.02;;;17.45;;
58242;SDS011;50118;53.232;8.252;2024-01-30T08:00:17;26.25;;;16.65;;
58242;SDS011;50118;53.232;8.252;2024-01-30T08:02:43;23.02;;;16.67;;
58242;SDS011;50118;53.232;8.252;2024-01-30T08:05:08;23.42;;;16.17;;
58242;SDS011;50118;53.232;8.252;2024-01-30T08:07:36;22.80;;;16.25;;
58242;SDS011;50118;53.232;8.252;2024-01-30T08:10:02;21.25;;;16.80;;
58242;SDS011;50118;53.232;8.252;2024-01-30T08:12:27;22.17;;;15.60;;
58242;SDS011;50118;53.232;8.252;2024-01-30T08:14:53;23.17;;;16.27;;
58242;SDS011;50118;53.232;8.252;2024-01-30T08:17:19;23.38;;;16.45;;
58242;SDS011;50118;53.232;8.252;2024-01-30T08:19:44;21.98;;;15.95;;
58242;SDS011;50118;53.232;8.252;2024-01-30T08:22:09;20.38;;;14.93;;
58242;SDS011;50118;53.232;8.252;2024-01-30T08:24:35;22.45;;;15.80;;
58242;SDS011;50118;53.232;8.252;2024-01-30T08:27:00;21.92;;;15.13;;
58242;SDS011;50118;53.232;8.252;2024-01-30T08:29:27;23.65;;;15.50;;
58242;SDS011;50118;53.232;8.252;2024-01-30T08:31:53;22.25;;;15.38;;
58242;SDS011;50118;53.232;8.252;2024-01-30T08:34:20;22.10;;;15.25;;
58242;SDS011;50118;53.232;8.252;2024-01-30T08:36:46;19.92;;;15.40;;
58242;SDS011;50118;53.232;8.252;2024-01-30T08:39:11;21.35;;;15.32;;
58242;SDS011;50118;53.232;8.252;2024-01-30T08:41:37;21.55;;;14.75;;
58242;SDS011;50118;53.232;8.252;2024-01-30T08:44:02;21.52;;;14.48;;
58242;SDS011;50118;53.232;8.252;2024-01-30T08:46:29;21.73;;;14.10;;
58242;SDS011;50118;53.232;8.252;2024-01-30T08:48:55;21.50;;;14.13;;
58242;SDS011;50118;53.232;8.252;2024-01-30T08:51:21;19.77;;;14.00;;
58242;SDS011;50118;53.232;8.252;2024-01-30T08:53:47;20.00;;;13.73;;
58242;SDS011;50118;53.232;8.252;2024-01-30T08:56:12;23.35;;;14.13;;
58242;SDS011;50118;53.232;8.252;2024-01-30T08:58:38;18.55;;;13.85;;
58242;SDS011;50118;53.232;8.252;2024-01-30T09:01:04;20.65;;;13.90;;
58242;SDS011;50118;53.232;8.252;2024-01-30T09:03:31;17.85;;;13.82;;
58242;SDS011;50118;53.232;8.252;2024-01-30T09:05:56;19.13;;;13.60;;
58242;SDS011;50118;53.232;8.252;2024-01-30T09:08:22;17.52;;;13.07;;
58242;SDS011;50118;53.232;8.252;2024-01-30T09:10:47;20.05;;;13.48;;
58242;SDS011;50118;53.232;8.252;2024-01-30T09:13:14;17.42;;;12.43;;
58242;SDS011;50118;53.232;8.252;2024-01-30T09:15:40;18.13;;;12.85;;
58242;SDS011;50118;53.232;8.252;2024-01-30T09:18:07;17.23;;;12.82;;
58242;SDS011;50118;53.232;8.252;2024-01-30T09:20:32;19.48;;;13.35;;
58242;SDS011;50118;53.232;8.252;2024-01-30T09:22:58;21.63;;;15.13;;
58242;SDS011;50118;53.232;8.252;2024-01-30T09:25:24;19.55;;;13.90;;
58242;SDS011;50118;53.232;8.252;2024-01-30T09:27:49;16.00;;;12.25;;
58242;SDS011;50118;53.232;8.252;2024-01-30T09:30:14;19.23;;;13.40;;
58242;SDS011;50118;53.232;8.252;2024-01-30T09:32:40;17.70;;;13.02;;
58242;SDS011;50118;53.232;8.252;2024-01-30T09:35:06;17.35;;;12.45;;
58242;SDS011;50118;53.232;8.252;2024-01-30T09:37:31;18.42;;;12.80;;
58242;SDS011;50118;53.232;8.252;2024-01-30T09:39:57;16.20;;;12.48;;
58242;SDS011;50118;53.232;8.252;2024-01-30T09:45:02;19.88;;;12.07;;
58242;SDS011;50118;53.232;8.252;2024-01-30T09:47:32;15.48;;;12.00;;
58242;SDS011;50118;53.232;8.252;2024-01-30T09:50:02;16.95;;;11.98;;
58242;SDS011;50118;53.232;8.252;2024-01-30T09:52:28;19.45;;;12.48;;
58242;SDS011;50118;53.232;8.252;2024-01-30T09:54:54;15.80;;;11.65;;
58242;SDS011;50118;53.232;8.252;2024-01-30T09:57:20;18.40;;;12.60;;
58242;SDS011;50118;53.232;8.252;2024-01-30T09:59:46;16.98;;;11.38;;
58242;SDS011;50118;53.232;8.252;2024-01-30T10:02:11;17.88;;;12.13;;
58242;SDS011;50118;53.232;8.252;2024-01-30T10:04:37;18.02;;;12.35;;
58242;SDS011;50118;53.232;8.252;2024-01-30T10:07:03;17.33;;;11.77;;
58242;SDS011;50118;53.232;8.252;2024-01-30T10:09:31;14.68;;;11.63;;
58242;SDS011;50118;53.232;8.252;2024-01-30T10:11:59;15.48;;;11.35;;
58242;SDS011;50118;53.232;8.252;2024-01-30T10:14:24;17.63;;;11.65;;
58242;SDS011;50118;53.232;8.252;2024-01-30T10:16:50;17.33;;;11.10;;
58242;SDS011;50118;53.232;8.252;2024-01-30T10:19:16;16.95;;;11.18;;
58242;SDS011;50118;53.232;8.252;2024-01-30T10:21:41;15.45;;;11.13;;
58242;SDS011;50118;53.232;8.252;2024-01-30T10:24:07;17.27;;;11.25;;
58242;SDS011;50118;53.232;8.252;2024-01-30T10:26:32;14.85;;;10.63;;
58242;SDS011;50118;53.232;8.252;2024-01-30T10:28:59;15.85;;;11.43;;
58242;SDS011;50118;53.232;8.252;2024-01-30T10:31:25;16.77;;;11.60;;
58242;SDS011;50118;53.232;8.252;2024-01-30T10:33:50;16.55;;;10.98;;
58242;SDS011;50118;53.232;8.252;2024-01-30T10:36:16;15.73;;;10.70;;
58242;SDS011;50118;53.232;8.252;2024-01-30T10:38:43;18.52;;;11.05;;
58242;SDS011;50118;53.232;8.252;2024-01-30T10:41:11;13.98;;;10.32;;
58242;SDS011;50118;53.232;8.252;2024-01-30T10:43:40;16.77;;;10.70;;
58242;SDS011;50118;53.232;8.252;2024-01-30T10:46:19;14.15;;;10.30;;
58242;SDS011;50118;53.232;8.252;2024-01-30T10:48:50;14.65;;;10.27;;
58242;SDS011;50118;53.232;8.252;2024-01-30T10:51:22;16.48;;;10.93;;
58242;SDS011;50118;53.232;8.252;2024-01-30T10:53:49;15.23;;;11.02;;
58242;SDS011;50118;53.232;8.252;2024-01-30T10:56:16;17.33;;;11.60;;
58242;SDS011;50118;53.232;8.252;2024-01-30T10:58:41;15.05;;;10.80;;
58242;SDS011;50118;53.232;8.252;2024-01-30T11:01:07;15.48;;;10.40;;
58242;SDS011;50118;53.232;8.252;2024-01-30T11:03:33;13.60;;;10.32;;
58242;SDS011;50118;53.232;8.252;2024-01-30T11:06:02;13.57;;;10.32;;
58242;SDS011;50118;53.232;8.252;2024-01-30T11:08:28;14.63;;;10.70;;
58242;SDS011;50118;53.232;8.252;2024-01-30T11:10:57;13.65;;;10.38;;
58242;SDS011;50118;53.232;8.252;2024-01-30T11:13:26;13.73;;;9.90;;
58242;SDS011;50118;53.232;8.252;2024-01-30T11:15:55;15.80;;;10.03;;
58242;SDS011;50118;53.232;8.252;2024-01-30T11:18:26;15.98;;;10.25;;
58242;SDS011;50118;53.232;8.252;2024-01-30T11:20:57;13.23;;;10.00;;
58242;SDS011;50118;53.232;8.252;2024-01-30T11:23:26;12.63;;;9.75;;
58242;SDS011;50118;53.232;8.252;2024-01-30T11:25:55;12.95;;;9.45;;
58242;SDS011;50118;53.232;8.252;2024-01-30T11:28:21;13.90;;;10.38;;
58242;SDS011;50118;53.232;8.252;2024-01-30T11:30:48;15.48;;;10.38;;
58242;SDS011;50118;53.232;8.252;2024-01-30T11:33:16;15.45;;;10.02;;
58242;SDS011;50118;53.232;8.252;2024-01-30T11:35:55;14.50;;;9.90;;
58242;SDS011;50118;53.232;8.252;2024-01-30T11:38:22;13.63;;;10.10;;
58242;SDS011;50118;53.232;8.252;2024-01-30T11:40:50;13.02;;;9.57;;
58242;SDS011;50118;53.232;8.252;2024-01-30T11:43:16;14.77;;;9.77;;
58242;SDS011;50118;53.232;8.252;2024-01-30T11:45:43;13.52;;;9.90;;
58242;SDS011;50118;53.232;8.252;2024-01-30T11:48:11;14.73;;;10.05;;
58242;SDS011;50118;53.232;8.252;2024-01-30T11:50:37;13.68;;;9.40;;
58242;SDS011;50118;53.232;8.252;2024-01-30T11:53:03;15.48;;;9.70;;
58242;SDS011;50118;53.232;8.252;2024-01-30T11:55:30;14.35;;;10.23;;
58242;SDS011;50118;53.232;8.252;2024-01-30T11:58:00;14.10;;;9.65;;
58242;SDS011;50118;53.232;8.252;2024-01-30T12:00:25;12.88;;;9.60;;
58242;SDS011;50118;53.232;8.252;2024-01-30T12:02:52;15.43;;;10.40;;
58242;SDS011;50118;53.232;8.252;2024-01-30T12:05:24;14.10;;;9.52;;
58242;SDS011;50118;53.232;8.252;2024-01-30T12:07:50;14.35;;;10.00;;
58242;SDS011;50118;53.232;8.252;2024-01-30T12:10:17;13.25;;;9.65;;
58242;SDS011;50118;53.232;8.252;2024-01-30T12:12:43;12.45;;;9.43;;
58242;SDS011;50118;53.232;8.252;2024-01-30T12:15:11;15.30;;;10.20;;
58242;SDS011;50118;53.232;8.252;2024-01-30T12:17:37;15.55;;;10.20;;
58242;SDS011;50118;53.232;8.252;2024-01-30T12:20:09;13.93;;;9.85;;
58242;SDS011;50118;53.232;8.252;2024-01-30T12:22:37;18.00;;;11.48;;
58242;SDS011;50118;53.232;8.252;2024-01-30T12:25:13;14.95;;;10.30;;
58242;SDS011;50118;53.232;8.252;2024-01-30T12:27:39;14.15;;;10.10;;
58242;SDS011;50118;53.232;8.252;2024-01-30T12:30:08;15.18;;;10.23;;
58242;SDS011;50118;53.232;8.252;2024-01-30T12:32:35;15.00;;;10.18;;
58242;SDS011;50118;53.232;8.252;2024-01-30T12:35:01;13.88;;;9.63;;
58242;SDS011;50118;53.232;8.252;2024-01-30T12:37:27;14.07;;;10.20;;
58242;SDS011;50118;53.232;8.252;2024-01-30T12:39:54;16.60;;;11.05;;
58242;SDS011;50118;53.232;8.252;2024-01-30T12:42:20;16.15;;;10.30;;
58242;SDS011;50118;53.232;8.252;2024-01-30T12:44:49;13.52;;;9.93;;
58242;SDS011;50118;53.232;8.252;2024-01-30T12:47:15;13.50;;;9.80;;
58242;SDS011;50118;53.232;8.252;2024-01-30T12:49:42;15.68;;;10.35;;
58242;SDS011;50118;53.232;8.252;2024-01-30T12:52:09;16.65;;;10.38;;
58242;SDS011;50118;53.232;8.252;2024-01-30T12:54:35;15.60;;;10.68;;
58242;SDS011;50118;53.232;8.252;2024-01-30T12:57:00;17.55;;;10.02;;
58242;SDS011;50118;53.232;8.252;2024-01-30T12:59:26;16.17;;;9.90;;
58242;SDS011;50118;53.232;8.252;2024-01-30T13:01:51;16.05;;;10.40;;
58242;SDS011;50118;53.232;8.252;2024-01-30T13:04:17;16.23;;;10.68;;
58242;SDS011;50118;53.232;8.252;2024-01-30T13:06:42;14.98;;;10.27;;
58242;SDS011;50118;53.232;8.252;2024-01-30T13:09:08;15.65;;;10.52;;
58242;SDS011;50118;53.232;8.252;2024-01-30T13:11:33;16.05;;;10.70;;
58242;SDS011;50118;53.232;8.252;2024-01-30T13:13:59;16.77;;;10.82;;
58242;SDS011;50118;53.232;8.252;2024-01-30T13:16:25;13.60;;;10.15;;
58242;SDS011;50118;53.232;8.252;2024-01-30T13:18:51;16.45;;;10.32;;
58242;SDS011;50118;53.232;8.252;2024-01-30T13:21:16;13.65;;;9.60;;
58242;SDS011;50118;53.232;8.252;2024-01-30T13:23:42;16.10;;;10.20;;
58242;SDS011;50118;53.232;8.252;2024-01-30T13:26:08;14.95;;;10.32;;
58242;SDS011;50118;53.232;8.252;2024-01-30T13:28:33;13.75;;;10.18;;
58242;SDS011;50118;53.232;8.252;2024-01-30T13:30:59;15.02;;;10.68;;
58242;SDS011;50118;53.232;8.252;2024-01-30T13:33:24;15.45;;;10.50;;
58242;SDS011;50118;53.232;8.252;2024-01-30T13:35:50;14.90;;;10.77;;
58242;SDS011;50118;53.232;8.252;2024-01-30T13:38:15;16.52;;;10.63;;
58242;SDS011;50118;53.232;8.252;2024-01-30T13:40:41;15.13;;;10.30;;
58242;SDS011;50118;53.232;8.252;2024-01-30T13:43:06;16.42;;;10.43;;
58242;SDS011;50118;53.232;8.252;2024-01-30T13:45:31;15.45;;;10.57;;
58242;SDS011;50118;53.232;8.252;2024-01-30T13:47:57;14.35;;;10.20;;
58242;SDS011;50118;53.232;8.252;2024-01-30T13:50:24;16.63;;;10.45;;
58242;SDS011;50118;53.232;8.252;2024-01-30T13:52:49;15.88;;;10.70;;
58242;SDS011;50118;53.232;8.252;2024-01-30T13:55:15;14.35;;;9.88;;
58242;SDS011;50118;53.232;8.252;2024-01-30T13:57:40;14.95;;;10.10;;
58242;SDS011;50118;53.232;8.252;2024-01-30T14:00:06;12.93;;;10.05;;
58242;SDS011;50118;53.232;8.252;2024-01-30T14:02:32;13.13;;;10.38;;
58242;SDS011;50118;53.232;8.252;2024-01-30T14:04:58;14.23;;;9.88;;
58242;SDS011;50118;53.232;8.252;2024-01-30T14:07:23;14.48;;;10.32;;
58242;SDS011;50118;53.232;8.252;2024-01-30T14:09:49;14.10;;;10.63;;
58242;SDS011;50118;53.232;8.252;2024-01-30T14:12:15;19.55;;;10.90;;
58242;SDS011;50118;53.232;8.252;2024-01-30T14:14:40;14.88;;;10.13;;
58242;SDS011;50118;53.232;8.252;2024-01-30T14:17:06;15.25;;;10.25;;
58242;SDS011;50118;53.232;8.252;2024-01-30T14:19:33;16.83;;;10.63;;